sensor_id;sensor_type;location;lat;lon;timestamp;P1;durP1;ratioP1;P2;durP2;ratioP2
64282;SDS011;50497;50.720;-2.084;2022-12-07T00:01:36;28.00;;;13.43;;
64282;SDS011;50497;50.720;-2.084;2022-12-07T00:04:06;30.13;;;11.82;;
64282;SDS011;50497;50.720;-2.084;2022-12-07T00:06:44;26.48;;;11.88;;
64282;SDS011;50497;50.720;-2.084;2022-12-07T00:09:12;26.75;;;11.65;;
64282;SDS011;50497;50.720;-2.084;2022-12-07T00:11:40;29.27;;;12.90;;
64282;SDS011;50497;50.720;-2.084;2022-12-07T00:14:06;26.25;;;12.15;;
64282;SDS011;50497;50.720;-2.084;2022-12-07T00:16:34;27.70;;;12.98;;
64282;SDS011;50497;50.720;-2.084;2022-12-07T00:19:00;32.47;;;13.55;;
64282;SDS011;50497;50.720;-2.084;2022-12-07T00:21:31;31.52;;;13.32;;
64282;SDS011;50497;50.720;-2.084;2022-12-07T00:23:58;30.75;;;12.02;;
64282;SDS011;50497;50.720;-2.084;2022-12-07T00:26:28;29.15;;;11.90;;
64282;SDS011;50497;50.720;-2.084;2022-12-07T00:29:11;28.33;;;12.23;;
64282;SDS011;50497;50.720;-2.084;2022-12-07T00:31:40;25.60;;;11.30;;
64282;SDS011;50497;50.720;-2.084;2022-12-07T00:34:06;29.17;;;12.02;;
64282;SDS011;50497;50.720;-2.084;2022-12-07T00:36:37;26.65;;;10.90;;
64282;SDS011;50497;50.720;-2.084;2022-12-07T00:39:03;26.35;;;11.30;;
64282;SDS011;50497;50.720;-2.084;2022-12-07T00:41:31;30.33;;;12.05;;
64282;SDS011;50497;50.720;-2.084;2022-12-07T00:44:00;29.90;;;12.23;;
64282;SDS011;50497;50.720;-2.084;2022-12-07T00:46:25;30.50;;;12.57;;
64282;SDS011;50497;50.720;-2.084;2022-12-07T00:48:51;31.92;;;12.43;;
64282;SDS011;50497;50.720;-2.084;2022-12-07T00:51:19;30.00;;;11.88;;
64282;SDS011;50497;50.720;-2.084;2022-12-07T00:53:45;30.13;;;11.80;;
64282;SDS011;50497;50.720;-2.084;2022-12-07T00:56:21;28.25;;;12.55;;
64282;SDS011;50497;50.720;-2.084;2022-12-07T00:59:10;30.85;;;12.23;;
64282;SDS011;50497;50.720;-2.084;2022-12-07T01:01:38;33.15;;;13.07;;
64282;SDS011;50497;50.720;-2.084;2022-12-07T01:04:03;36.05;;;13.45;;
64282;SDS011;50497;50.720;-2.084;2022-12-07T01:06:29;32.13;;;13.40;;
64282;SDS011;50497;50.720;-2.084;2022-12-07T01:08:55;37.45;;;14.00;;
64282;SDS011;50497;50.720;-2.084;2022-12-07T01:11:23;37.95;;;14.55;;
64282;SDS011;50497;50.720;-2.084;2022-12-07T01:13:54;37.90;;;14.20;;
64282;SDS011;50497;50.720;-2.084;2022-12-07T01:16:23;38.38;;;15.10;;
64282;SDS011;50497;50.720;-2.084;2022-12-07T01:18:54;41.40;;;15.30;;
64282;SDS011;50497;50.720;-2.084;2022-12-07T01:21:29;39.17;;;15.07;;
64282;SDS011;50497;50.720;-2.084;2022-12-07T01:23:59;38.22;;;14.68;;
64282;SDS011;50497;50.720;-2.084;2022-12-07T01:26:25;36.08;;;15.02;;
64282;SDS011;50497;50.720;-2.084;2022-12-07T01:28:52;40.28;;;15.98;;
64282;SDS011;50497;50.720;-2.084;2022-12-07T01:31:20;41.22;;;16.25;;
64282;SDS011;50497;50.720;-2.084;2022-12-07T01:33:48;36.67;;;14.85;;
64282;SDS011;50497;50.720;-2.084;2022-12-07T01:38:55;41.53;;;14.95;;
64282;SDS011;50497;50.720;-2.084;2022-12-07T01:41:23;50.80;;;16.25;;
64282;SDS011;50497;50.720;-2.084;2022-12-07T01:46:42;46.08;;;16.08;;
64282;SDS011;50497;50.720;-2.084;2022-12-07T01:49:31;36.72;;;14.38;;
64282;SDS011;50497;50.720;-2.084;2022-12-07T01:52:09;44.60;;;15.95;;
64282;SDS011;50497;50.720;-2.084;2022-12-07T01:54:41;37.13;;;14.80;;
64282;SDS011;50497;50.720;-2.084;2022-12-07T01:57:09;40.97;;;14.27;;
64282;SDS011;50497;50.720;-2.084;2022-12-07T01:59:36;46.38;;;15.90;;
64282;SDS011;50497;50.720;-2.084;2022-12-07T02:02:10;43.33;;;15.27;;
64282;SDS011;50497;50.720;-2.084;2022-12-07T02:04:46;41.85;;;15.02;;
64282;SDS011;50497;50.720;-2.084;2022-12-07T02:07:12;41.88;;;14.90;;
64282;SDS011;50497;50.720;-2.084;2022-12-07T02:09:37;44.63;;;15.27;;
64282;SDS011;50497;50.720;-2.084;2022-12-07T02:12:03;37.63;;;13.77;;
64282;SDS011;50497;50.720;-2.084;2022-12-07T02:14:29;44.42;;;14.88;;
64282;SDS011;50497;50.720;-2.084;2022-12-07T02:17:02;42.42;;;14.85;;
64282;SDS011;50497;50.720;-2.084;2022-12-07T02:24:57;42.80;;;13.70;;
64282;SDS011;50497;50.720;-2.084;2022-12-07T02:30:39;46.17;;;14.32;;
64282;SDS011;50497;50.720;-2.084;2022-12-07T02:33:17;44.38;;;14.98;;
64282;SDS011;50497;50.720;-2.084;2022-12-07T02:36:05;40.88;;;15.15;;
64282;SDS011;50497;50.720;-2.084;2022-12-07T02:38:50;44.13;;;15.50;;
64282;SDS011;50497;50.720;-2.084;2022-12-07T02:41:22;41.47;;;15.23;;
64282;SDS011;50497;50.720;-2.084;2022-12-07T02:44:02;44.85;;;15.10;;
64282;SDS011;50497;50.720;-2.084;2022-12-07T02:46:33;43.33;;;14.93;;
64282;SDS011;50497;50.720;-2.084;2022-12-07T02:49:02;41.03;;;15.35;;
64282;SDS011;50497;50.720;-2.084;2022-12-07T02:51:32;45.65;;;15.13;;
64282;SDS011;50497;50.720;-2.084;2022-12-07T02:53:58;45.58;;;14.13;;
64282;SDS011;50497;50.720;-2.084;2022-12-07T03:07:32;42.85;;;13.93;;
64282;SDS011;50497;50.720;-2.084;2022-12-07T03:10:12;39.75;;;14.18;;
64282;SDS011;50497;50.720;-2.084;2022-12-07T03:12:46;42.40;;;14.10;;
64282;SDS011;50497;50.720;-2.084;2022-12-07T03:15:26;39.40;;;13.70;;
64282;SDS011;50497;50.720;-2.084;2022-12-07T03:17:56;39.70;;;15.18;;
64282;SDS011;50497;50.720;-2.084;2022-12-07T03:20:25;38.03;;;13.43;;
64282;SDS011;50497;50.720;-2.084;2022-12-07T03:22:52;41.60;;;14.98;;
64282;SDS011;50497;50.720;-2.084;2022-12-07T03:25:24;41.15;;;13.55;;
64282;SDS011;50497;50.720;-2.084;2022-12-07T03:30:20;37.92;;;14.63;;
64282;SDS011;50497;50.720;-2.084;2022-12-07T03:33:23;41.05;;;15.35;;
64282;SDS011;50497;50.720;-2.084;2022-12-07T03:35:48;41.40;;;14.52;;
64282;SDS011;50497;50.720;-2.084;2022-12-07T03:39:03;44.80;;;15.32;;
64282;SDS011;50497;50.720;-2.084;2022-12-07T03:41:14;41.47;;;14.18;;
64282;SDS011;50497;50.720;-2.084;2022-12-07T03:43:47;42.67;;;16.02;;
64282;SDS011;50497;50.720;-2.084;2022-12-07T03:46:32;46.78;;;16.25;;
64282;SDS011;50497;50.720;-2.084;2022-12-07T03:54:30;44.45;;;15.95;;
64282;SDS011;50497;50.720;-2.084;2022-12-07T03:57:01;47.80;;;15.60;;
64282;SDS011;50497;50.720;-2.084;2022-12-07T03:59:29;43.88;;;15.90;;
64282;SDS011;50497;50.720;-2.084;2022-12-07T04:01:57;40.75;;;15.20;;
64282;SDS011;50497;50.720;-2.084;2022-12-07T04:04:27;45.65;;;14.35;;
64282;SDS011;50497;50.720;-2.084;2022-12-07T04:06:54;45.72;;;14.93;;
64282;SDS011;50497;50.720;-2.084;2022-12-07T04:09:22;30.25;;;11.40;;
64282;SDS011;50497;50.720;-2.084;2022-12-07T04:11:49;47.70;;;15.60;;
64282;SDS011;50497;50.720;-2.084;2022-12-07T04:14:15;44.10;;;14.25;;
64282;SDS011;50497;50.720;-2.084;2022-12-07T04:16:53;44.38;;;15.23;;
64282;SDS011;50497;50.720;-2.084;2022-12-07T04:19:23;45.58;;;15.75;;
64282;SDS011;50497;50.720;-2.084;2022-12-07T04:21:50;44.60;;;15.88;;
64282;SDS011;50497;50.720;-2.084;2022-12-07T04:24:16;43.80;;;13.95;;
64282;SDS011;50497;50.720;-2.084;2022-12-07T04:26:45;39.70;;;14.15;;
64282;SDS011;50497;50.720;-2.084;2022-12-07T04:29:11;33.90;;;12.13;;
64282;SDS011;50497;50.720;-2.084;2022-12-07T04:31:37;36.75;;;11.57;;
64282;SDS011;50497;50.720;-2.084;2022-12-07T04:34:03;38.95;;;13.57;;
64282;SDS011;50497;50.720;-2.084;2022-12-07T04:36:29;35.55;;;12.57;;
64282;SDS011;50497;50.720;-2.084;2022-12-07T04:38:59;36.33;;;14.00;;
64282;SDS011;50497;50.720;-2.084;2022-12-07T04:41:26;33.67;;;11.88;;
64282;SDS011;50497;50.720;-2.084;2022-12-07T04:43:58;36.15;;;12.68;;
64282;SDS011;50497;50.720;-2.084;2022-12-07T04:46:26;35.05;;;13.30;;
64282;SDS011;50497;50.720;-2.084;2022-12-07T04:51:19;33.55;;;12.20;;
64282;SDS011;50497;50.720;-2.084;2022-12-07T04:53:46;37.33;;;12.98;;
64282;SDS011;50497;50.720;-2.084;2022-12-07T04:56:12;30.23;;;10.05;;
64282;SDS011;50497;50.720;-2.084;2022-12-07T04:58:39;36.60;;;12.43;;
64282;SDS011;50497;50.720;-2.084;2022-12-07T05:01:08;26.15;;;10.27;;
64282;SDS011;50497;50.720;-2.084;2022-12-07T05:03:35;33.35;;;11.80;;
64282;SDS011;50497;50.720;-2.084;2022-12-07T05:06:01;33.42;;;12.32;;
64282;SDS011;50497;50.720;-2.084;2022-12-07T05:08:26;31.90;;;11.05;;
64282;SDS011;50497;50.720;-2.084;2022-12-07T05:10:52;33.03;;;12.23;;
64282;SDS011;50497;50.720;-2.084;2022-12-07T05:13:21;32.50;;;12.77;;
64282;SDS011;50497;50.720;-2.084;2022-12-07T05:15:47;34.55;;;12.20;;
64282;SDS011;50497;50.720;-2.084;2022-12-07T05:18:13;32.75;;;12.82;;
64282;SDS011;50497;50.720;-2.084;2022-12-07T05:20:39;35.33;;;12.70;;
64282;SDS011;50497;50.720;-2.084;2022-12-07T05:23:05;36.33;;;13.32;;
64282;SDS011;50497;50.720;-2.084;2022-12-07T05:25:30;37.08;;;13.30;;
64282;SDS011;50497;50.720;-2.084;2022-12-07T05:27:57;29.98;;;11.65;;
64282;SDS011;50497;50.720;-2.084;2022-12-07T05:30:23;34.88;;;11.75;;
64282;SDS011;50497;50.720;-2.084;2022-12-07T05:35:18;32.60;;;10.63;;
64282;SDS011;50497;50.720;-2.084;2022-12-07T05:37:44;36.45;;;11.70;;
64282;SDS011;50497;50.720;-2.084;2022-12-07T05:40:17;30.67;;;10.98;;
64282;SDS011;50497;50.720;-2.084;2022-12-07T05:42:44;28.50;;;10.23;;
64282;SDS011;50497;50.720;-2.084;2022-12-07T05:45:10;28.08;;;10.15;;
64282;SDS011;50497;50.720;-2.084;2022-12-07T05:47:36;28.02;;;9.68;;
64282;SDS011;50497;50.720;-2.084;2022-12-07T05:50:02;26.15;;;10.15;;
64282;SDS011;50497;50.720;-2.084;2022-12-07T05:52:31;27.20;;;10.77;;
64282;SDS011;50497;50.720;-2.084;2022-12-07T05:54:57;31.95;;;11.00;;
64282;SDS011;50497;50.720;-2.084;2022-12-07T05:57:22;32.03;;;11.65;;
64282;SDS011;50497;50.720;-2.084;2022-12-07T05:59:49;29.10;;;11.00;;
64282;SDS011;50497;50.720;-2.084;2022-12-07T06:02:19;23.10;;;7.47;;
64282;SDS011;50497;50.720;-2.084;2022-12-07T06:04:45;32.45;;;11.18;;
64282;SDS011;50497;50.720;-2.084;2022-12-07T06:07:12;26.70;;;10.43;;
64282;SDS011;50497;50.720;-2.084;2022-12-07T06:09:43;27.27;;;9.23;;
64282;SDS011;50497;50.720;-2.084;2022-12-07T06:12:16;26.45;;;10.18;;
64282;SDS011;50497;50.720;-2.084;2022-12-07T06:15:00;29.73;;;10.75;;
64282;SDS011;50497;50.720;-2.084;2022-12-07T06:17:25;30.33;;;11.05;;
64282;SDS011;50497;50.720;-2.084;2022-12-07T06:19:51;31.95;;;10.93;;
64282;SDS011;50497;50.720;-2.084;2022-12-07T06:22:16;31.67;;;11.88;;
64282;SDS011;50497;50.720;-2.084;2022-12-07T06:24:42;35.05;;;12.48;;
64282;SDS011;50497;50.720;-2.084;2022-12-07T06:27:09;31.67;;;11.40;;
64282;SDS011;50497;50.720;-2.084;2022-12-07T06:29:37;27.77;;;10.27;;
64282;SDS011;50497;50.720;-2.084;2022-12-07T06:32:03;30.27;;;11.30;;
64282;SDS011;50497;50.720;-2.084;2022-12-07T06:34:29;29.48;;;10.65;;
64282;SDS011;50497;50.720;-2.084;2022-12-07T06:36:55;32.35;;;11.38;;
64282;SDS011;50497;50.720;-2.084;2022-12-07T06:39:21;29.35;;;10.93;;
64282;SDS011;50497;50.720;-2.084;2022-12-07T06:41:52;26.33;;;10.07;;
64282;SDS011;50497;50.720;-2.084;2022-12-07T06:49:09;28.67;;;9.88;;
64282;SDS011;50497;50.720;-2.084;2022-12-07T06:51:35;28.02;;;9.68;;
64282;SDS011;50497;50.720;-2.084;2022-12-07T06:54:02;28.30;;;10.05;;
64282;SDS011;50497;50.720;-2.084;2022-12-07T06:56:31;26.70;;;9.73;;
64282;SDS011;50497;50.720;-2.084;2022-12-07T06:58:57;30.23;;;10.60;;
64282;SDS011;50497;50.720;-2.084;2022-12-07T07:01:22;27.67;;;9.93;;
64282;SDS011;50497;50.720;-2.084;2022-12-07T07:03:54;28.08;;;10.35;;
64282;SDS011;50497;50.720;-2.084;2022-12-07T07:06:20;28.85;;;10.65;;
64282;SDS011;50497;50.720;-2.084;2022-12-07T07:08:45;26.65;;;10.70;;
64282;SDS011;50497;50.720;-2.084;2022-12-07T07:11:12;28.88;;;10.50;;
64282;SDS011;50497;50.720;-2.084;2022-12-07T07:13:37;29.48;;;10.75;;
64282;SDS011;50497;50.720;-2.084;2022-12-07T07:16:03;30.92;;;11.52;;
64282;SDS011;50497;50.720;-2.084;2022-12-07T07:18:29;30.95;;;10.88;;
64282;SDS011;50497;50.720;-2.084;2022-12-07T07:20:57;28.08;;;10.55;;
64282;SDS011;50497;50.720;-2.084;2022-12-07T07:23:26;30.58;;;11.43;;
64282;SDS011;50497;50.720;-2.084;2022-12-07T07:25:52;33.00;;;10.77;;
64282;SDS011;50497;50.720;-2.084;2022-12-07T07:28:18;31.65;;;10.50;;
64282;SDS011;50497;50.720;-2.084;2022-12-07T07:30:43;32.40;;;11.77;;
64282;SDS011;50497;50.720;-2.084;2022-12-07T07:33:13;29.55;;;10.60;;
64282;SDS011;50497;50.720;-2.084;2022-12-07T07:35:39;26.83;;;8.93;;
64282;SDS011;50497;50.720;-2.084;2022-12-07T07:38:05;27.50;;;10.05;;
64282;SDS011;50497;50.720;-2.084;2022-12-07T07:40:31;26.50;;;10.20;;
64282;SDS011;50497;50.720;-2.084;2022-12-07T07:42:56;25.80;;;9.98;;
64282;SDS011;50497;50.720;-2.084;2022-12-07T07:45:24;25.95;;;8.77;;
64282;SDS011;50497;50.720;-2.084;2022-12-07T07:47:51;24.85;;;9.20;;
64282;SDS011;50497;50.720;-2.084;2022-12-07T07:50:17;28.67;;;10.52;;
64282;SDS011;50497;50.720;-2.084;2022-12-07T07:52:43;25.55;;;9.77;;
64282;SDS011;50497;50.720;-2.084;2022-12-07T07:55:12;22.80;;;8.27;;
64282;SDS011;50497;50.720;-2.084;2022-12-07T07:57:38;26.90;;;9.45;;
64282;SDS011;50497;50.720;-2.084;2022-12-07T08:02:32;27.85;;;9.45;;
64282;SDS011;50497;50.720;-2.084;2022-12-07T08:04:57;29.48;;;10.00;;
64282;SDS011;50497;50.720;-2.084;2022-12-07T08:07:23;29.45;;;10.45;;
64282;SDS011;50497;50.720;-2.084;2022-12-07T08:09:48;24.90;;;9.85;;
64282;SDS011;50497;50.720;-2.084;2022-12-07T08:12:14;26.02;;;9.57;;
64282;SDS011;50497;50.720;-2.084;2022-12-07T08:14:39;30.58;;;10.50;;
64282;SDS011;50497;50.720;-2.084;2022-12-07T08:17:04;25.73;;;9.30;;
64282;SDS011;50497;50.720;-2.084;2022-12-07T08:19:30;31.67;;;10.65;;
64282;SDS011;50497;50.720;-2.084;2022-12-07T08:21:56;28.33;;;10.82;;
64282;SDS011;50497;50.720;-2.084;2022-12-07T08:24:22;29.25;;;10.35;;
64282;SDS011;50497;50.720;-2.084;2022-12-07T08:26:51;23.45;;;8.70;;
64282;SDS011;50497;50.720;-2.084;2022-12-07T08:29:16;26.90;;;9.63;;
64282;SDS011;50497;50.720;-2.084;2022-12-07T08:31:42;29.60;;;10.25;;
64282;SDS011;50497;50.720;-2.084;2022-12-07T08:34:07;31.45;;;10.38;;
64282;SDS011;50497;50.720;-2.084;2022-12-07T08:36:35;24.73;;;10.00;;
64282;SDS011;50497;50.720;-2.084;2022-12-07T08:39:01;29.77;;;10.93;;
64282;SDS011;50497;50.720;-2.084;2022-12-07T08:41:27;28.48;;;10.32;;
64282;SDS011;50497;50.720;-2.084;2022-12-07T08:43:53;29.10;;;10.30;;
64282;SDS011;50497;50.720;-2.084;2022-12-07T08:46:19;26.08;;;10.20;;
64282;SDS011;50497;50.720;-2.084;2022-12-07T08:49:25;27.48;;;10.52;;
64282;SDS011;50497;50.720;-2.084;2022-12-07T08:51:56;25.88;;;8.85;;
64282;SDS011;50497;50.720;-2.084;2022-12-07T08:54:22;28.67;;;10.13;;
64282;SDS011;50497;50.720;-2.084;2022-12-07T08:56:48;33.75;;;11.13;;
64282;SDS011;50497;50.720;-2.084;2022-12-07T08:59:16;25.25;;;9.68;;
64282;SDS011;50497;50.720;-2.084;2022-12-07T09:01:43;22.40;;;9.63;;
64282;SDS011;50497;50.720;-2.084;2022-12-07T09:04:09;28.63;;;11.07;;
64282;SDS011;50497;50.720;-2.084;2022-12-07T09:06:34;27.85;;;10.32;;
64282;SDS011;50497;50.720;-2.084;2022-12-07T09:09:00;29.75;;;10.70;;
64282;SDS011;50497;50.720;-2.084;2022-12-07T09:11:27;24.00;;;9.32;;
64282;SDS011;50497;50.720;-2.084;2022-12-07T09:13:52;26.77;;;11.02;;
64282;SDS011;50497;50.720;-2.084;2022-12-07T09:16:18;31.35;;;11.63;;
64282;SDS011;50497;50.720;-2.084;2022-12-07T09:18:43;29.30;;;10.80;;
64282;SDS011;50497;50.720;-2.084;2022-12-07T09:21:09;24.77;;;9.20;;
64282;SDS011;50497;50.720;-2.084;2022-12-07T09:23:34;30.85;;;11.93;;
64282;SDS011;50497;50.720;-2.084;2022-12-07T09:26:00;25.42;;;9.57;;
64282;SDS011;50497;50.720;-2.084;2022-12-07T09:28:27;27.55;;;10.45;;
64282;SDS011;50497;50.720;-2.084;2022-12-07T09:30:53;28.42;;;11.48;;
64282;SDS011;50497;50.720;-2.084;2022-12-07T09:33:19;31.67;;;12.23;;
64282;SDS011;50497;50.720;-2.084;2022-12-07T09:35:45;27.92;;;11.68;;
64282;SDS011;50497;50.720;-2.084;2022-12-07T09:38:11;33.33;;;12.23;;
64282;SDS011;50497;50.720;-2.084;2022-12-07T09:40:37;25.00;;;10.10;;
64282;SDS011;50497;50.720;-2.084;2022-12-07T09:43:11;30.90;;;12.48;;
64282;SDS011;50497;50.720;-2.084;2022-12-07T09:45:45;28.33;;;10.80;;
64282;SDS011;50497;50.720;-2.084;2022-12-07T09:51:01;34.63;;;11.32;;
64282;SDS011;50497;50.720;-2.084;2022-12-07T09:53:36;31.85;;;11.70;;
64282;SDS011;50497;50.720;-2.084;2022-12-07T09:56:03;30.48;;;11.88;;
64282;SDS011;50497;50.720;-2.084;2022-12-07T09:58:29;26.27;;;11.15;;
64282;SDS011;50497;50.720;-2.084;2022-12-07T10:00:58;30.70;;;12.35;;
64282;SDS011;50497;50.720;-2.084;2022-12-07T10:03:27;29.17;;;11.57;;
64282;SDS011;50497;50.720;-2.084;2022-12-07T10:05:53;20.65;;;8.52;;
64282;SDS011;50497;50.720;-2.084;2022-12-07T10:08:20;29.50;;;10.05;;
64282;SDS011;50497;50.720;-2.084;2022-12-07T10:10:48;29.53;;;10.83;;
64282;SDS011;50497;50.720;-2.084;2022-12-07T10:13:20;29.63;;;11.45;;
64282;SDS011;50497;50.720;-2.084;2022-12-07T10:16:25;30.08;;;11.20;;
64282;SDS011;50497;50.720;-2.084;2022-12-07T10:18:58;29.33;;;10.82;;
64282;SDS011;50497;50.720;-2.084;2022-12-07T10:24:36;22.25;;;9.32;;
64282;SDS011;50497;50.720;-2.084;2022-12-07T10:27:09;23.45;;;9.13;;
64282;SDS011;50497;50.720;-2.084;2022-12-07T10:29:47;24.35;;;9.60;;
64282;SDS011;50497;50.720;-2.084;2022-12-07T10:34:40;23.53;;;9.77;;
64282;SDS011;50497;50.720;-2.084;2022-12-07T10:39:44;22.02;;;9.10;;
64282;SDS011;50497;50.720;-2.084;2022-12-07T10:42:21;19.45;;;8.45;;
64282;SDS011;50497;50.720;-2.084;2022-12-07T10:45:17;24.80;;;9.15;;
64282;SDS011;50497;50.720;-2.084;2022-12-07T10:53:39;20.40;;;8.55;;
64282;SDS011;50497;50.720;-2.084;2022-12-07T11:10:18;22.02;;;8.20;;
64282;SDS011;50497;50.720;-2.084;2022-12-07T11:18:15;24.48;;;11.07;;
64282;SDS011;50497;50.720;-2.084;2022-12-07T11:26:16;18.38;;;7.82;;
64282;SDS011;50497;50.720;-2.084;2022-12-07T11:34:24;18.98;;;7.97;;
64282;SDS011;50497;50.720;-2.084;2022-12-07T11:37:01;17.45;;;7.05;;
64282;SDS011;50497;50.720;-2.084;2022-12-07T11:39:35;19.42;;;8.70;;
64282;SDS011;50497;50.720;-2.084;2022-12-07T11:42:09;21.80;;;9.50;;
64282;SDS011;50497;50.720;-2.084;2022-12-07T11:47:46;20.80;;;8.38;;
64282;SDS011;50497;50.720;-2.084;2022-12-07T11:53:14;16.75;;;7.35;;
64282;SDS011;50497;50.720;-2.084;2022-12-07T12:01:13;20.90;;;7.22;;
64282;SDS011;50497;50.720;-2.084;2022-12-07T12:03:43;22.27;;;9.13;;
64282;SDS011;50497;50.720;-2.084;2022-12-07T12:06:19;21.20;;;8.18;;
64282;SDS011;50497;50.720;-2.084;2022-12-07T12:14:29;18.27;;;7.53;;
64282;SDS011;50497;50.720;-2.084;2022-12-07T12:17:33;18.55;;;7.85;;
64282;SDS011;50497;50.720;-2.084;2022-12-07T12:26:01;16.50;;;6.63;;
64282;SDS011;50497;50.720;-2.084;2022-12-07T12:28:35;15.43;;;7.55;;
64282;SDS011;50497;50.720;-2.084;2022-12-07T12:31:07;16.73;;;5.75;;
64282;SDS011;50497;50.720;-2.084;2022-12-07T12:36:25;13.85;;;5.93;;
64282;SDS011;50497;50.720;-2.084;2022-12-07T12:39:17;14.10;;;6.03;;
64282;SDS011;50497;50.720;-2.084;2022-12-07T12:54:23;10.60;;;4.72;;
64282;SDS011;50497;50.720;-2.084;2022-12-07T13:04:54;14.18;;;5.05;;
64282;SDS011;50497;50.720;-2.084;2022-12-07T13:15:43;13.50;;;4.97;;
64282;SDS011;50497;50.720;-2.084;2022-12-07T13:18:35;11.20;;;4.75;;
64282;SDS011;50497;50.720;-2.084;2022-12-07T13:31:52;11.75;;;4.68;;
64282;SDS011;50497;50.720;-2.084;2022-12-07T13:37:00;13.10;;;5.03;;
64282;SDS011;50497;50.720;-2.084;2022-12-07T13:39:32;12.77;;;5.35;;
64282;SDS011;50497;50.720;-2.084;2022-12-07T13:42:06;12.00;;;4.30;;
64282;SDS011;50497;50.720;-2.084;2022-12-07T13:44:40;11.50;;;5.35;;
64282;SDS011;50497;50.720;-2.084;2022-12-07T13:49:48;11.07;;;4.93;;
64282;SDS011;50497;50.720;-2.084;2022-12-07T13:52:20;9.63;;;4.40;;
64282;SDS011;50497;50.720;-2.084;2022-12-07T13:54:49;15.38;;;5.63;;
64282;SDS011;50497;50.720;-2.084;2022-12-07T13:57:21;10.77;;;4.95;;
64282;SDS011;50497;50.720;-2.084;2022-12-07T14:02:32;12.25;;;4.70;;
64282;SDS011;50497;50.720;-2.084;2022-12-07T14:05:23;8.20;;;3.20;;
64282;SDS011;50497;50.720;-2.084;2022-12-07T14:08:01;11.15;;;3.95;;
64282;SDS011;50497;50.720;-2.084;2022-12-07T14:10:39;8.30;;;3.08;;
64282;SDS011;50497;50.720;-2.084;2022-12-07T14:15:59;9.65;;;3.00;;
64282;SDS011;50497;50.720;-2.084;2022-12-07T14:18:38;7.57;;;2.80;;
64282;SDS011;50497;50.720;-2.084;2022-12-07T14:21:21;6.65;;;2.50;;
64282;SDS011;50497;50.720;-2.084;2022-12-07T14:26:36;10.13;;;3.47;;
64282;SDS011;50497;50.720;-2.084;2022-12-07T14:31:51;9.55;;;3.17;;
64282;SDS011;50497;50.720;-2.084;2022-12-07T14:34:19;8.15;;;2.72;;
64282;SDS011;50497;50.720;-2.084;2022-12-07T14:36:48;11.23;;;3.58;;
64282;SDS011;50497;50.720;-2.084;2022-12-07T14:39:14;9.50;;;3.20;;
64282;SDS011;50497;50.720;-2.084;2022-12-07T14:41:42;11.18;;;3.55;;
64282;SDS011;50497;50.720;-2.084;2022-12-07T14:44:17;9.32;;;3.17;;
64282;SDS011;50497;50.720;-2.084;2022-12-07T14:46:47;7.43;;;2.58;;
64282;SDS011;50497;50.720;-2.084;2022-12-07T14:49:14;5.60;;;1.90;;
64282;SDS011;50497;50.720;-2.084;2022-12-07T14:51:41;6.28;;;2.08;;
64282;SDS011;50497;50.720;-2.084;2022-12-07T14:54:12;9.32;;;2.58;;
64282;SDS011;50497;50.720;-2.084;2022-12-07T14:56:42;8.20;;;2.90;;
64282;SDS011;50497;50.720;-2.084;2022-12-07T14:59:08;10.00;;;3.33;;
64282;SDS011;50497;50.720;-2.084;2022-12-07T15:01:35;10.23;;;2.78;;
64282;SDS011;50497;50.720;-2.084;2022-12-07T15:04:00;10.50;;;3.40;;
64282;SDS011;50497;50.720;-2.084;2022-12-07T15:06:25;13.43;;;3.35;;
64282;SDS011;50497;50.720;-2.084;2022-12-07T15:08:51;11.88;;;3.55;;
64282;SDS011;50497;50.720;-2.084;2022-12-07T15:11:17;10.63;;;4.25;;
64282;SDS011;50497;50.720;-2.084;2022-12-07T15:13:43;10.95;;;3.85;;
64282;SDS011;50497;50.720;-2.084;2022-12-07T15:16:27;12.02;;;3.83;;
64282;SDS011;50497;50.720;-2.084;2022-12-07T15:18:53;18.02;;;4.05;;
64282;SDS011;50497;50.720;-2.084;2022-12-07T15:21:18;9.60;;;3.20;;
64282;SDS011;50497;50.720;-2.084;2022-12-07T15:23:44;10.27;;;3.30;;
64282;SDS011;50497;50.720;-2.084;2022-12-07T15:26:11;12.88;;;3.85;;
64282;SDS011;50497;50.720;-2.084;2022-12-07T15:28:37;11.30;;;4.43;;
64282;SDS011;50497;50.720;-2.084;2022-12-07T15:31:02;11.45;;;4.03;;
64282;SDS011;50497;50.720;-2.084;2022-12-07T15:33:28;11.05;;;4.78;;
64282;SDS011;50497;50.720;-2.084;2022-12-07T15:35:53;11.95;;;5.05;;
64282;SDS011;50497;50.720;-2.084;2022-12-07T15:38:19;15.85;;;5.70;;
64282;SDS011;50497;50.720;-2.084;2022-12-07T15:40:47;16.83;;;5.95;;
64282;SDS011;50497;50.720;-2.084;2022-12-07T15:43:13;12.30;;;4.72;;
64282;SDS011;50497;50.720;-2.084;2022-12-07T15:45:57;14.45;;;4.63;;
64282;SDS011;50497;50.720;-2.084;2022-12-07T15:48:26;9.75;;;3.78;;
64282;SDS011;50497;50.720;-2.084;2022-12-07T15:50:52;9.90;;;3.60;;
64282;SDS011;50497;50.720;-2.084;2022-12-07T15:53:17;10.63;;;3.70;;
64282;SDS011;50497;50.720;-2.084;2022-12-07T15:55:47;12.32;;;4.35;;
64282;SDS011;50497;50.720;-2.084;2022-12-07T15:58:18;13.30;;;4.90;;
64282;SDS011;50497;50.720;-2.084;2022-12-07T16:00:44;16.65;;;5.05;;
64282;SDS011;50497;50.720;-2.084;2022-12-07T16:03:09;11.75;;;5.25;;
64282;SDS011;50497;50.720;-2.084;2022-12-07T16:05:35;12.75;;;5.20;;
64282;SDS011;50497;50.720;-2.084;2022-12-07T16:08:00;15.27;;;5.47;;
64282;SDS011;50497;50.720;-2.084;2022-12-07T16:10:26;15.43;;;5.78;;
64282;SDS011;50497;50.720;-2.084;2022-12-07T16:12:51;13.00;;;5.32;;
64282;SDS011;50497;50.720;-2.084;2022-12-07T16:15:16;15.10;;;6.40;;
64282;SDS011;50497;50.720;-2.084;2022-12-07T16:17:46;15.68;;;5.90;;
64282;SDS011;50497;50.720;-2.084;2022-12-07T16:20:11;16.30;;;6.50;;
64282;SDS011;50497;50.720;-2.084;2022-12-07T16:22:46;18.90;;;8.02;;
64282;SDS011;50497;50.720;-2.084;2022-12-07T16:25:13;20.85;;;8.20;;
64282;SDS011;50497;50.720;-2.084;2022-12-07T16:27:39;18.80;;;8.00;;
64282;SDS011;50497;50.720;-2.084;2022-12-07T16:30:11;16.70;;;7.53;;
64282;SDS011;50497;50.720;-2.084;2022-12-07T16:32:37;22.35;;;10.50;;
64282;SDS011;50497;50.720;-2.084;2022-12-07T16:35:03;23.55;;;11.20;;
64282;SDS011;50497;50.720;-2.084;2022-12-07T16:37:32;17.15;;;7.68;;
64282;SDS011;50497;50.720;-2.084;2022-12-07T16:39:59;22.42;;;9.15;;
64282;SDS011;50497;50.720;-2.084;2022-12-07T16:42:31;19.88;;;9.77;;
64282;SDS011;50497;50.720;-2.084;2022-12-07T16:44:58;15.93;;;7.63;;
64282;SDS011;50497;50.720;-2.084;2022-12-07T16:47:25;23.35;;;8.40;;
64282;SDS011;50497;50.720;-2.084;2022-12-07T16:49:51;19.67;;;7.68;;
64282;SDS011;50497;50.720;-2.084;2022-12-07T16:52:17;17.20;;;7.65;;
64282;SDS011;50497;50.720;-2.084;2022-12-07T16:54:43;17.45;;;7.47;;
64282;SDS011;50497;50.720;-2.084;2022-12-07T16:57:09;27.95;;;12.18;;
64282;SDS011;50497;50.720;-2.084;2022-12-07T16:59:35;29.30;;;12.15;;
64282;SDS011;50497;50.720;-2.084;2022-12-07T17:02:00;24.13;;;11.15;;
64282;SDS011;50497;50.720;-2.084;2022-12-07T17:04:25;24.80;;;11.30;;
64282;SDS011;50497;50.720;-2.084;2022-12-07T17:06:51;23.63;;;10.52;;
64282;SDS011;50497;50.720;-2.084;2022-12-07T17:09:16;20.63;;;9.35;;
64282;SDS011;50497;50.720;-2.084;2022-12-07T17:11:43;24.73;;;10.30;;
64282;SDS011;50497;50.720;-2.084;2022-12-07T17:14:09;23.02;;;9.60;;
64282;SDS011;50497;50.720;-2.084;2022-12-07T17:16:53;19.50;;;8.07;;
64282;SDS011;50497;50.720;-2.084;2022-12-07T17:19:19;18.52;;;7.82;;
64282;SDS011;50497;50.720;-2.084;2022-12-07T17:21:44;17.48;;;8.30;;